Time;durP1;ratioP1;P1;durP2;ratioP2;P2;SDS_P1;SDS_P2;PMS_P1;PMS_P2;Temp;Humidity;BMP_temperature;BMP_pressure;BME280_temperature;BME280_humidity;BME280_pressure;Samples;Min_cycle;Max_cycle;Signal;HPM_P1;HPM_P2
2023/12/20 00:01:22;;;;;;;198.75;86.30;;;;;;;0.24;84.42;95577.56;5089845;28;20564;-81
2023/12/20 00:03:48;;;;;;;197.45;87.10;;;;;;;0.06;83.94;95556.50;5081748;28;20036;-81
2023/12/20 00:06:14;;;;;;;196.07;87.03;;;;;;;-0.12;83.97;95554.44;5098504;28;20135;-81
2023/12/20 00:08:39;;;;;;;193.20;85.70;;;;;;;0.40;84.46;95613.69;5079668;28;20050;-81
2023/12/20 00:11:05;;;;;;;177.35;79.05;;;;;;;-0.29;84.14;95495.88;5080195;28;20036;-80
2023/12/20 00:13:31;;;;;;;188.70;83.75;;;;;;;-0.22;84.03;95494.88;5079568;28;20119;-80
2023/12/20 00:15:56;;;;;;;184.48;84.20;;;;;;;-0.41;84.48;95461.78;5079752;28;20070;-80
2023/12/20 00:18:22;;;;;;;194.68;84.53;;;;;;;-0.12;84.77;95504.91;5081232;28;20037;-81
2023/12/20 00:20:47;;;;;;;203.68;85.93;;;;;;;-0.15;84.20;95500.09;5079511;28;20036;-81
2023/12/20 00:23:13;;;;;;;181.75;83.70;;;;;;;0.07;83.79;95556.31;5079055;28;20119;-86
2023/12/20 00:25:38;;;;;;;179.05;81.22;;;;;;;0.28;84.22;95586.59;5076645;28;20046;-87
2023/12/20 00:28:04;;;;;;;190.95;79.95;;;;;;;-0.26;84.11;95488.47;5076606;28;20093;-87
2023/12/20 00:30:29;;;;;;;188.80;82.30;;;;;;;0.07;84.35;95540.66;5077229;28;20070;-87
2023/12/20 00:32:56;;;;;;;176.10;77.05;;;;;;;-0.97;83.74;95391.75;5078090;28;20038;-87
2023/12/20 00:35:21;;;;;;;183.45;77.28;;;;;;;-0.12;84.15;95526.56;5077699;28;20085;-87
2023/12/20 00:37:47;;;;;;;174.55;75.15;;;;;;;0.24;84.41;95577.56;5076724;28;20130;-87
2023/12/20 00:40:13;;;;;;;168.73;74.85;;;;;;;0.28;84.53;95576.97;5080776;28;20048;-86
2023/12/20 00:42:38;;;;;;;171.35;75.03;;;;;;;0.10;84.19;95535.03;5088642;28;20374;-86
2023/12/20 00:45:05;;;;;;;172.90;74.72;;;;;;;0.19;83.93;95549.47;5087298;28;20096;-87
2023/12/20 00:47:33;;;;;;;186.20;78.93;;;;;;;-0.02;83.86;95511.34;5094643;28;20063;-86
2023/12/20 00:49:59;;;;;;;191.63;79.80;;;;;;;0.36;84.14;95563.75;5095784;28;20035;-86
2023/12/20 00:52:25;;;;;;;180.07;77.05;;;;;;;-0.64;83.55;95417.06;5093938;28;20084;-86
2023/12/20 00:54:51;;;;;;;181.85;74.93;;;;;;;-0.27;84.23;95468.63;5094898;28;20032;-86
2023/12/20 00:57:16;;;;;;;168.00;75.00;;;;;;;0.12;84.13;95524.41;5093759;28;20066;-86
2023/12/20 00:59:41;;;;;;;187.25;81.05;;;;;;;0.39;83.80;95550.28;5091564;28;20037;-87
2023/12/20 01:02:07;;;;;;;191.45;80.90;;;;;;;0.22;84.08;95537.84;5106482;28;20012;-87
2023/12/20 01:04:34;;;;;;;215.73;92.55;;;;;;;-0.43;83.89;95422.88;5104581;28;20508;-87
2023/12/20 01:07:00;;;;;;;231.45;98.55;;;;;;;0.31;83.77;95537.44;5078718;28;20052;-86
2023/12/20 01:09:28;;;;;;;275.58;118.82;;;;;;;-0.71;83.04;95380.59;5059237;28;20029;-87
2023/12/20 01:11:54;;;;;;;329.13;141.38;;;;;;;-0.03;83.23;95470.63;5071092;28;20029;-87
2023/12/20 01:14:19;;;;;;;372.17;163.05;;;;;;;-0.11;82.77;95465.63;5075011;28;20608;-87
2023/12/20 01:16:45;;;;;;;333.75;146.27;;;;;;;-0.52;82.72;95405.03;5074432;28;20032;-87
2023/12/20 01:19:11;;;;;;;320.27;138.10;;;;;;;-0.17;82.26;95452.59;5089733;28;20052;-86
2023/12/20 01:21:36;;;;;;;314.45;138.13;;;;;;;0.17;81.74;95542.84;5094694;28;20060;-86
2023/12/20 01:24:02;;;;;;;344.17;143.20;;;;;;;-0.44;82.70;95449.94;5069404;28;20040;-80
2023/12/20 01:26:28;;;;;;;351.33;150.38;;;;;;;-0.96;82.16;95351.69;5079959;28;20460;-80
2023/12/20 01:28:53;;;;;;;348.40;148.00;;;;;;;-0.61;82.68;95403.66;5080710;28;20033;-81
2023/12/20 01:31:19;;;;;;;342.40;144.63;;;;;;;-0.94;82.34;95341.91;5080339;28;20173;-80
2023/12/20 01:33:44;;;;;;;343.33;148.15;;;;;;;0.16;82.20;95525.59;5077651;28;20035;-87
2023/12/20 01:36:11;;;;;;;332.35;143.82;;;;;;;-0.04;82.27;95476.84;5074387;28;20110;-87
2023/12/20 01:38:37;;;;;;;342.30;143.85;;;;;;;-0.01;82.32;95484.28;5072713;28;20123;-86
2023/12/20 01:41:02;;;;;;;326.55;136.70;;;;;;;-0.12;82.49;95469.22;5072510;28;20044;-87
2023/12/20 01:43:29;;;;;;;318.25;135.50;;;;;;;-0.35;82.33;95447.94;5072648;28;20102;-86
2023/12/20 01:45:57;;;;;;;313.92;138.23;;;;;;;-0.03;82.32;95496.72;5084727;28;20033;-87
2023/12/20 01:48:23;;;;;;;329.35;142.35;;;;;;;-0.17;82.24;95463.00;5095160;28;20028;-86
2023/12/20 01:50:49;;;;;;;319.63;135.90;;;;;;;-0.81;82.26;95360.13;5114261;28;20040;-85
2023/12/20 01:53:15;;;;;;;296.20;126.80;;;;;;;0.08;82.26;95497.91;5112979;28;20032;-86
2023/12/20 01:55:42;;;;;;;295.55;127.78;;;;;;;-0.90;82.29;95326.66;5098839;28;20093;-87
2023/12/20 01:58:10;;;;;;;309.48;132.07;;;;;;;-0.57;82.69;95386.59;5078436;28;20024;-87
2023/12/20 02:00:37;;;;;;;314.23;131.20;;;;;;;-0.30;82.74;95422.09;5095970;28;20031;-87
2023/12/20 02:03:03;;;;;;;318.10;136.65;;;;;;;-1.37;82.45;95241.72;5097970;28;20549;-87
2023/12/20 02:05:34;;;;;;;319.83;137.82;;;;;;;-0.11;82.32;95449.16;5093073;28;21242;-86
2023/12/20 02:08:00;;;;;;;314.90;139.32;;;;;;;-0.43;82.37;95391.63;5077779;28;20044;-85
2023/12/20 02:10:26;;;;;;;300.55;132.27;;;;;;;-0.50;82.05;95379.59;5075226;28;20077;-85
2023/12/20 02:12:52;;;;;;;273.08;119.68;;;;;;;-0.06;81.94;95470.22;5074747;28;20032;-86
2023/12/20 02:15:18;;;;;;;271.67;118.32;;;;;;;-0.61;81.54;95388.00;5074734;28;20037;-86
2023/12/20 02:17:46;;;;;;;262.30;109.18;;;;;;;-0.20;81.67;95459.00;5072718;28;20100;-86
2023/12/20 02:20:11;;;;;;;257.33;109.82;;;;;;;-0.72;81.10;95388.59;5090769;28;20032;-87
2023/12/20 02:22:37;;;;;;;272.33;111.70;;;;;;;-0.30;81.79;95471.59;5065938;28;20033;-86
2023/12/20 02:25:03;;;;;;;260.38;106.38;;;;;;;-0.49;81.05;95431.50;5058171;28;20037;-86
2023/12/20 02:27:29;;;;;;;258.92;105.57;;;;;;;-0.35;81.23;95458.38;5074129;28;20189;-86
2023/12/20 02:29:55;;;;;;;243.10;101.18;;;;;;;-0.32;81.47;95454.56;5056119;28;20028;-87
2023/12/20 02:32:22;;;;;;;256.00;105.45;;;;;;;-0.43;80.93;95450.75;5055628;28;20047;-86
2023/12/20 02:34:48;;;;;;;249.82;100.15;;;;;;;-0.59;81.10;95415.44;5079077;28;20039;-81
2023/12/20 02:37:14;;;;;;;249.90;106.03;;;;;;;-0.77;81.06;95391.81;5060264;28;20064;-80
2023/12/20 02:39:40;;;;;;;242.80;103.45;;;;;;;-0.52;81.30;95431.91;5059805;28;20028;-80
2023/12/20 02:42:05;;;;;;;259.63;101.15;;;;;;;-0.77;80.73;95381.38;5077454;28;20051;-80
2023/12/20 02:44:31;;;;;;;248.57;97.35;;;;;;;-0.70;81.10;95381.38;5075457;28;20032;-87
2023/12/20 02:46:56;;;;;;;228.05;94.80;;;;;;;-0.79;80.72;95381.56;5054734;28;20040;-86
2023/12/20 02:49:22;;;;;;;214.32;87.03;;;;;;;-0.62;80.75;95402.84;5054934;28;20371;-87
2023/12/20 02:51:47;;;;;;;218.02;84.50;;;;;;;-0.59;80.47;95392.00;5055066;28;20044;-87
2023/12/20 02:54:13;;;;;;;216.55;84.40;;;;;;;-0.45;80.73;95440.50;5055032;28;20197;-87
2023/12/20 02:56:38;;;;;;;207.65;84.80;;;;;;;-0.63;80.51;95414.25;5054854;28;20050;-87
2023/12/20 02:59:08;;;;;;;198.45;79.10;;;;;;;-0.70;80.06;95405.63;5054893;28;20047;-87
2023/12/20 03:01:34;;;;;;;194.07;77.43;;;;;;;-0.79;79.88;95412.81;5055112;28;20434;-86
2023/12/20 03:04:01;;;;;;;184.65;75.55;;;;;;;-0.74;80.60;95435.66;5054971;28;20123;-86
2023/12/20 03:06:26;;;;;;;187.93;77.35;;;;;;;-1.41;80.78;95328.97;5065543;28;20117;-87
2023/12/20 03:08:52;;;;;;;209.75;75.50;;;;;;;-1.04;81.10;95384.91;5074996;28;20545;-87
2023/12/20 03:11:18;;;;;;;197.35;78.25;;;;;;;-1.10;80.93;95372.69;5092575;28;20505;-87
2023/12/20 03:13:43;;;;;;;186.27;75.57;;;;;;;-0.88;80.87;95410.59;5093197;28;20417;-86
2023/12/20 03:16:13;;;;;;;188.52;72.35;;;;;;;-1.05;81.00;95391.13;5093561;28;20178;-87
2023/12/20 03:18:39;;;;;;;189.27;73.63;;;;;;;-0.92;81.17;95402.38;5073986;28;20087;-87
2023/12/20 03:21:05;;;;;;;198.57;73.82;;;;;;;-1.15;80.88;95351.66;5075023;28;20031;-87
2023/12/20 03:23:34;;;;;;;175.15;69.75;;;;;;;-0.75;81.20;95421.03;5093502;28;20112;-87
2023/12/20 03:26:00;;;;;;;169.82;71.07;;;;;;;-1.69;81.18;95262.28;5074805;28;20580;-87
2023/12/20 03:28:26;;;;;;;196.70;72.40;;;;;;;-1.73;81.27;95275.84;5074883;28;20445;-87
2023/12/20 03:30:52;;;;;;;193.15;66.90;;;;;;;-2.04;81.03;95219.13;5074400;28;20195;-87
2023/12/20 03:33:18;;;;;;;184.52;71.47;;;;;;;-1.25;81.07;95326.00;5092405;28;20077;-87
2023/12/20 03:35:43;;;;;;;181.30;70.97;;;;;;;-0.95;81.38;95378.53;5092939;28;20036;-87
2023/12/20 03:38:09;;;;;;;190.27;70.35;;;;;;;-1.25;81.25;95344.22;5092790;28;20128;-87
2023/12/20 03:40:35;;;;;;;167.98;66.57;;;;;;;-1.80;81.49;95247.22;5092782;28;20059;-87
2023/12/20 03:43:01;;;;;;;173.60;64.13;;;;;;;-0.75;81.56;95404.59;5092951;28;20032;-87
2023/12/20 03:45:26;;;;;;;166.50;67.38;;;;;;;-1.19;81.19;95333.81;5092244;28;20063;-86
2023/12/20 03:47:56;;;;;;;161.05;65.85;;;;;;;-0.77;81.64;95402.22;5092475;28;20036;-87
2023/12/20 03:50:25;;;;;;;155.93;61.00;;;;;;;-0.80;81.36;95413.00;5073860;28;20031;-87
2023/12/20 03:52:51;;;;;;;211.88;63.10;;;;;;;-1.15;81.44;95377.69;5074152;28;20119;-87
2023/12/20 03:55:17;;;;;;;191.68;60.80;;;;;;;-1.32;82.54;95359.81;5106092;28;20032;-88
2023/12/20 03:57:42;;;;;;;197.27;62.08;;;;;;;-2.04;82.40;95227.72;5107345;28;20055;-87
2023/12/20 04:00:11;;;;;;;188.55;61.90;;;;;;;-1.84;82.74;95256.41;5108487;28;20032;-88
2023/12/20 04:02:41;;;;;;;194.15;61.65;;;;;;;-0.90;82.71;95399.56;5089672;28;20040;-88
2023/12/20 04:05:08;;;;;;;193.70;60.95;;;;;;;-1.04;82.27;95364.91;5088128;28;20039;-88
2023/12/20 04:07:34;;;;;;;177.75;56.75;;;;;;;-1.17;82.75;95352.66;5087950;28;20076;-87
2023/12/20 04:10:00;;;;;;;206.95;59.05;;;;;;;-1.04;82.29;95384.91;5090376;28;20417;-87
2023/12/20 04:12:27;;;;;;;230.43;64.10;;;;;;;-1.16;84.16;95379.50;5108135;28;20039;-86
2023/12/20 04:14:53;;;;;;;181.55;60.08;;;;;;;-1.93;83.44;95259.38;5090993;28;20096;-87
2023/12/20 04:17:18;;;;;;;189.40;65.78;;;;;;;-1.22;83.63;95362.84;5090193;28;20157;-88
2023/12/20 04:19:44;;;;;;;218.07;62.95;;;;;;;-1.19;83.56;95351.25;5089215;28;20107;-87
2023/12/20 04:22:09;;;;;;;176.70;59.25;;;;;;;-1.77;83.76;95266.84;5089806;28;20028;-87
2023/12/20 04:24:35;;;;;;;182.50;62.55;;;;;;;-1.79;83.89;95266.22;5090254;28;20047;-87
2023/12/20 04:27:01;;;;;;;213.80;64.00;;;;;;;-1.04;84.43;95371.91;5106631;28;20032;-87
2023/12/20 04:29:27;;;;;;;186.63;62.75;;;;;;;-2.18;84.01;95179.31;5088730;28;20063;-87
2023/12/20 04:31:53;;;;;;;179.57;66.03;;;;;;;-1.65;83.88;95260.88;5090169;28;20039;-88
2023/12/20 04:34:18;;;;;;;172.95;64.28;;;;;;;-1.86;83.75;95226.41;5107441;28;20059;-87
2023/12/20 04:36:44;;;;;;;151.70;64.95;;;;;;;-1.08;83.46;95340.28;5088427;28;20418;-87
2023/12/20 04:39:12;;;;;;;171.70;72.30;;;;;;;-1.81;83.10;95234.41;5107174;28;20036;-87
2023/12/20 04:41:37;;;;;;;174.77;72.22;;;;;;;-1.32;83.07;95304.38;5107951;28;20047;-87
2023/12/20 04:44:03;;;;;;;162.13;73.10;;;;;;;-1.02;82.56;95368.09;5090073;28;20039;-87
2023/12/20 04:46:28;;;;;;;171.95;71.25;;;;;;;-1.09;82.64;95356.88;5108265;28;20454;-87
2023/12/20 04:48:54;;;;;;;162.68;66.63;;;;;;;-1.24;82.58;95332.81;5092403;28;20093;-87
2023/12/20 04:51:20;;;;;;;166.77;70.72;;;;;;;-1.33;82.08;95310.56;5112518;28;20042;-87
2023/12/20 04:53:45;;;;;;;176.02;69.85;;;;;;;-2.10;81.75;95178.34;5087729;28;20028;-87
2023/12/20 04:56:11;;;;;;;185.23;71.57;;;;;;;-2.07;81.07;95193.56;5077724;28;20046;-87
2023/12/20 04:58:36;;;;;;;172.27;71.63;;;;;;;-1.51;81.39;95279.91;5076554;28;20133;-87
2023/12/20 05:01:05;;;;;;;178.88;69.95;;;;;;;-3.73;81.15;94939.47;5077329;28;20040;-87
2023/12/20 05:03:30;;;;;;;170.20;63.90;;;;;;;-1.21;81.08;95342.81;5078230;28;20038;-87
2023/12/20 05:05:56;;;;;;;144.80;64.72;;;;;;;-1.19;80.77;95351.25;5095881;28;20051;-86
2023/12/20 05:08:21;;;;;;;163.43;65.07;;;;;;;-1.28;81.21;95329.00;5095949;28;20047;-86
2023/12/20 05:10:47;;;;;;;139.55;60.75;;;;;;;-1.48;80.90;95289.13;5071050;28;20049;-86
2023/12/20 05:13:13;;;;;;;148.43;61.95;;;;;;;-1.13;81.12;95344.44;5066316;28;20044;-86
2023/12/20 05:15:38;;;;;;;150.02;61.08;;;;;;;-1.21;80.70;95345.41;5061560;28;20044;-86
2023/12/20 05:18:04;;;;;;;142.75;59.33;;;;;;;-2.13;80.81;95213.31;5058559;28;20495;-86
2023/12/20 05:20:30;;;;;;;129.10;56.22;;;;;;;-1.58;81.21;95292.09;5078927;28;20447;-86
2023/12/20 05:22:55;;;;;;;118.28;55.33;;;;;;;-1.20;81.41;95332.22;5051157;28;20100;-86
2023/12/20 05:25:21;;;;;;;128.20;53.40;;;;;;;-2.85;81.26;95096.94;5050089;28;20598;-85
2023/12/20 05:27:47;;;;;;;132.25;53.25;;;;;;;-1.81;81.73;95257.81;5057679;28;20040;-86
2023/12/20 05:30:13;;;;;;;128.02;54.03;;;;;;;-1.84;81.98;95251.22;5037774;28;20126;-86
2023/12/20 05:32:39;;;;;;;141.20;55.80;;;;;;;-1.93;82.04;95244.59;5033849;28;20725;-87
2023/12/20 05:35:05;;;;;;;130.25;55.60;;;;;;;-1.35;82.23;95323.78;5058240;28;20042;-85
2023/12/20 05:37:30;;;;;;;146.68;58.10;;;;;;;-2.18;82.31;95184.50;5050793;28;20028;-85
2023/12/20 05:39:56;;;;;;;145.70;58.83;;;;;;;-1.79;82.57;95266.22;5055954;28;20093;-86
2023/12/20 05:42:21;;;;;;;129.43;55.50;;;;;;;-2.38;82.48;95171.47;5038415;28;20041;-86
2023/12/20 05:44:47;;;;;;;141.10;59.25;;;;;;;-2.39;82.55;95162.06;5036945;28;20040;-86
2023/12/20 05:47:12;;;;;;;184.43;67.68;;;;;;;-1.48;83.04;95294.31;5025068;28;20125;-86
2023/12/20 05:49:38;;;;;;;148.90;58.72;;;;;;;-1.48;82.45;95296.94;5048387;28;20079;-86
2023/12/20 05:52:04;;;;;;;140.48;54.00;;;;;;;-1.86;82.05;95247.19;5085551;28;20032;-85
2023/12/20 05:54:30;;;;;;;139.75;56.55;;;;;;;-1.60;82.68;95297.47;5042218;28;20482;-86
2023/12/20 05:56:55;;;;;;;143.38;56.80;;;;;;;-2.53;82.14;95154.41;5043975;28;20113;-87
2023/12/20 05:59:21;;;;;;;130.25;54.83;;;;;;;-1.87;82.39;95233.41;5037632;28;20040;-85
2023/12/20 06:01:46;;;;;;;138.80;52.72;;;;;;;-2.19;82.61;95174.31;5021106;28;20040;-86
2023/12/20 06:04:12;;;;;;;136.68;55.78;;;;;;;-1.45;82.40;95280.94;5024511;28;20062;-84
2023/12/20 06:06:44;;;;;;;139.30;54.38;;;;;;;-1.34;82.13;95311.56;5048995;28;20064;-86
2023/12/20 06:09:10;;;;;;;137.90;52.60;;;;;;;-3.59;82.23;94956.72;5071453;28;20047;-85
2023/12/20 06:11:36;;;;;;;140.52;52.58;;;;;;;-2.19;82.63;95172.50;5065852;28;20032;-86
2023/12/20 06:14:01;;;;;;;134.55;51.33;;;;;;;-1.47;82.56;95286.34;5064480;28;20036;-87
2023/12/20 06:16:27;;;;;;;124.50;50.70;;;;;;;-1.63;83.17;95263.28;5062397;28;20076;-82
2023/12/20 06:18:52;;;;;;;136.02;49.97;;;;;;;-1.31;83.42;95309.41;5050478;28;20541;-82
2023/12/20 06:21:18;;;;;;;148.70;51.13;;;;;;;-1.49;82.97;95283.13;5042217;28;20048;-85
2023/12/20 06:23:43;;;;;;;123.05;47.22;;;;;;;-2.13;83.01;95186.50;5048357;28;20329;-83
2023/12/20 06:26:09;;;;;;;110.82;47.70;;;;;;;-4.06;83.25;94895.28;5074924;28;20036;-84
2023/12/20 06:28:34;;;;;;;145.55;55.63;;;;;;;-1.48;83.58;95287.31;5062909;28;20036;-83
2023/12/20 06:31:00;;;;;;;108.03;44.05;;;;;;;-1.31;83.33;95325.00;5072430;28;20046;-82
2023/12/20 06:33:26;;;;;;;122.85;47.05;;;;;;;-1.62;83.43;95259.69;5057998;28;20103;-86
2023/12/20 06:35:52;;;;;;;117.28;46.40;;;;;;;-2.15;83.60;95199.72;5040316;28;20052;-85
2023/12/20 06:38:18;;;;;;;122.63;50.28;;;;;;;-1.93;83.62;95215.19;5050852;28;20047;-86
2023/12/20 06:40:46;;;;;;;165.18;57.28;;;;;;;-1.89;84.16;95248.38;5049923;28;20040;-82
2023/12/20 06:43:13;;;;;;;160.15;60.75;;;;;;;-1.56;84.18;95310.91;5054121;28;20115;-82
2023/12/20 06:45:38;;;;;;;130.05;55.08;;;;;;;-2.09;84.83;95242.31;5046982;28;20040;-85
2023/12/20 06:48:04;;;;;;;132.05;53.10;;;;;;;-3.17;85.04;95050.88;5049675;28;20114;-85
2023/12/20 06:50:30;;;;;;;114.78;47.80;;;;;;;-2.61;84.77;95116.44;5059256;28;20546;-83
2023/12/20 06:52:56;;;;;;;115.78;50.13;;;;;;;-1.38;84.69;95290.38;5055935;28;20052;-82
2023/12/20 06:55:21;;;;;;;124.43;48.22;;;;;;;-3.04;84.42;95017.22;5050583;28;20036;-85
2023/12/20 06:57:50;;;;;;;119.72;47.78;;;;;;;-1.70;84.77;95219.06;5056308;28;20055;-86
2023/12/20 07:00:17;;;;;;;123.20;48.67;;;;;;;-6.31;84.29;94482.88;5058602;28;20062;-83
2023/12/20 07:02:43;;;;;;;125.82;47.90;;;;;;;-1.13;84.77;95310.59;5054272;28;20044;-85
2023/12/20 07:05:09;;;;;;;127.18;49.80;;;;;;;-1.62;84.22;95210.28;5047074;28;20042;-85
2023/12/20 07:07:34;;;;;;;120.90;52.20;;;;;;;-2.19;83.60;95109.34;5076941;28;20496;-85
2023/12/20 07:10:00;;;;;;;130.68;52.10;;;;;;;-1.75;84.20;95187.63;5072393;28;20712;-84
2023/12/20 07:12:26;;;;;;;144.65;58.28;;;;;;;-1.03;84.53;95275.41;5055715;28;20032;-86
2023/12/20 07:14:51;;;;;;;144.77;57.90;;;;;;;-1.13;84.61;95251.56;5037893;28;20122;-85
2023/12/20 07:17:17;;;;;;;153.23;62.70;;;;;;;-0.98;84.20;95280.00;5040203;28;20043;-84
2023/12/20 07:19:42;;;;;;;212.32;65.22;;;;;;;-1.41;84.89;95235.31;5045898;28;20052;-86
2023/12/20 07:22:08;;;;;;;176.57;62.92;;;;;;;-1.91;85.21;95122.22;5061813;28;20020;-87
2023/12/20 07:24:34;;;;;;;221.13;64.18;;;;;;;-1.62;85.75;95184.28;5045565;28;20051;-86
2023/12/20 07:27:00;;;;;;;196.88;65.63;;;;;;;-3.07;86.23;94962.34;5074023;28;20425;-85
2023/12/20 07:29:26;;;;;;;189.07;64.88;;;;;;;-2.02;86.69;95111.41;5073125;28;20028;-84
2023/12/20 07:31:53;;;;;;;337.02;71.15;;;;;;;-1.05;86.77;95237.53;5069429;28;20409;-84
2023/12/20 07:34:20;;;;;;;225.05;66.63;;;;;;;-0.81;86.40;95261.19;5073420;28;20040;-84
2023/12/20 07:36:45;;;;;;;206.27;69.50;;;;;;;-2.10;86.12;95033.63;5072568;28;20035;-86
2023/12/20 07:39:12;;;;;;;222.10;65.80;;;;;;;-0.84;86.06;95230.31;5066278;28;20410;-86
2023/12/20 07:41:37;;;;;;;179.88;66.30;;;;;;;-3.39;85.67;94816.81;5077765;28;20099;-83
2023/12/20 07:44:04;;;;;;;157.88;64.20;;;;;;;-0.51;86.02;95253.75;5072994;28;20100;-83
2023/12/20 07:46:30;;;;;;;165.13;64.38;;;;;;;-0.61;85.34;95240.31;5098111;28;20024;-84
2023/12/20 07:48:56;;;;;;;154.68;62.78;;;;;;;-1.76;85.39;95052.66;5064407;28;20100;-85
2023/12/20 07:51:21;;;;;;;158.82;63.28;;;;;;;-0.61;85.06;95221.31;5074048;28;20042;-85
2023/12/20 07:53:47;;;;;;;163.65;62.50;;;;;;;-0.83;85.01;95171.25;5095716;28;20036;-87
2023/12/20 07:56:16;;;;;;;151.93;60.88;;;;;;;-1.95;84.98;94978.88;5104522;28;20104;-84
2023/12/20 07:58:42;;;;;;;148.23;58.90;;;;;;;-0.95;85.00;95128.63;5104353;28;20040;-83
2023/12/20 08:01:08;;;;;;;142.23;58.33;;;;;;;-1.34;84.99;95062.63;5077895;28;20052;-86
2023/12/20 08:03:33;;;;;;;173.43;63.22;;;;;;;-0.64;85.08;95161.81;5075455;28;20059;-83
2023/12/20 08:06:00;;;;;;;175.10;66.20;;;;;;;-0.32;85.07;95220.84;5081176;28;20064;-85
2023/12/20 08:08:26;;;;;;;176.52;64.30;;;;;;;-0.45;84.96;95215.66;5083261;28;20016;-87
2023/12/20 08:10:51;;;;;;;170.07;61.88;;;;;;;-0.18;85.53;95245.84;5093273;28;20591;-86
2023/12/20 08:13:17;;;;;;;178.20;67.57;;;;;;;-0.33;85.27;95219.25;5070297;28;20047;-83
2023/12/20 08:15:42;;;;;;;161.13;62.20;;;;;;;-0.52;85.94;95204.44;5092713;28;20032;-83
2023/12/20 08:18:08;;;;;;;165.90;63.47;;;;;;;-1.35;86.31;95068.00;5077350;28;20541;-83
2023/12/20 08:20:33;;;;;;;151.05;60.33;;;;;;;-2.54;86.42;94877.56;5070703;28;20040;-82
2023/12/20 08:22:59;;;;;;;135.27;53.42;;;;;;;-0.16;86.43;95207.38;5100768;28;20042;-87
2023/12/20 08:25:24;;;;;;;142.95;55.10;;;;;;;-0.24;85.79;95163.28;5086929;28;20024;-85
2023/12/20 08:27:50;;;;;;;141.25;54.05;;;;;;;-0.29;85.47;95146.66;5068511;28;20040;-88
2023/12/20 08:30:20;;;;;;;148.27;59.53;;;;;;;-0.64;84.70;95110.50;5066669;28;20039;-85
2023/12/20 08:32:46;;;;;;;133.52;59.03;;;;;;;-2.55;85.08;94791.09;5065246;28;20047;-83
2023/12/20 08:35:11;;;;;;;153.68;61.35;;;;;;;-2.21;84.62;94839.38;5073032;28;20446;-82
2023/12/20 08:37:37;;;;;;;168.05;66.03;;;;;;;0.24;85.72;95217.59;5071538;28;20061;-86
2023/12/20 08:40:03;;;;;;;150.93;63.03;;;;;;;0.28;85.20;95211.78;5077863;28;20039;-84
2023/12/20 08:42:31;;;;;;;172.43;64.18;;;;;;;-0.14;85.39;95144.56;5075968;28;20032;-82
2023/12/20 08:44:58;;;;;;;148.13;61.78;;;;;;;0.31;85.45;95195.69;5093537;28;20024;-82
2023/12/20 08:47:24;;;;;;;145.02;56.15;;;;;;;0.30;84.30;95191.50;5073176;28;20036;-82
2023/12/20 08:49:50;;;;;;;164.77;58.30;;;;;;;-2.88;85.06;94728.03;5074511;28;20028;-85
2023/12/20 08:52:15;;;;;;;166.02;60.20;;;;;;;-0.38;85.59;95115.59;5089478;28;20027;-83
2023/12/20 08:54:41;;;;;;;164.80;59.38;;;;;;;0.06;85.63;95168.75;5074099;28;20120;-82
2023/12/20 08:57:06;;;;;;;186.40;67.05;;;;;;;-2.25;85.26;94803.63;5082280;28;20036;-83
2023/12/20 08:59:32;;;;;;;197.55;64.55;;;;;;;0.17;85.85;95182.94;5089779;28;20039;-83
2023/12/20 09:01:58;;;;;;;185.43;67.55;;;;;;;0.27;86.12;95172.84;5089816;28;20314;-85
2023/12/20 09:04:24;;;;;;;216.70;69.10;;;;;;;-1.13;85.87;94939.25;5074566;28;20151;-85
2023/12/20 09:06:49;;;;;;;197.82;66.55;;;;;;;-0.20;85.86;95091.47;5065838;28;20433;-83
2023/12/20 09:09:21;;;;;;;193.60;69.50;;;;;;;0.08;85.81;95109.34;5085914;28;20112;-83
2023/12/20 09:11:48;;;;;;;;;;;;;;;0.45;85.97;95149.47;5067058;28;20059;-81
2023/12/20 09:14:13;;;;;;;196.45;66.40;;;;;;;-1.16;85.95;94903.25;5068047;28;19980;-85
2023/12/20 09:16:39;;;;;;;193.32;64.13;;;;;;;-2.39;85.79;94671.22;5069971;28;20036;-83
2023/12/20 09:19:05;;;;;;;177.30;57.67;;;;;;;-0.32;85.79;94981.09;5088790;28;20024;-83
2023/12/20 09:21:30;;;;;;;176.95;56.78;;;;;;;0.50;86.55;95107.88;5088085;28;20040;-85
2023/12/20 09:23:56;;;;;;;162.52;56.80;;;;;;;0.51;86.56;95090.41;5063643;28;20029;-82
2023/12/20 09:26:21;;;;;;;172.98;61.22;;;;;;;-0.09;86.50;94988.38;5068912;28;20027;-86
2023/12/20 09:28:47;;;;;;;190.57;64.07;;;;;;;-0.61;86.01;94883.47;5091236;28;20028;-83
2023/12/20 09:31:13;;;;;;;169.40;58.75;;;;;;;0.82;86.12;95110.44;5072495;28;20035;-82
2023/12/20 09:33:38;;;;;;;150.40;50.38;;;;;;;-0.77;86.02;94850.16;5090736;28;20084;-86
2023/12/20 09:36:05;;;;;;;143.48;52.47;;;;;;;0.00;86.30;94951.38;5095525;28;20347;-85
2023/12/20 09:38:31;;;;;;;140.20;50.03;;;;;;;0.88;85.91;95078.25;5083145;28;20028;-86
2023/12/20 09:40:57;;;;;;;137.80;49.65;;;;;;;0.09;85.53;94938.88;5099094;28;20056;-86
2023/12/20 09:43:29;;;;;;;144.38;52.65;;;;;;;1.05;85.83;95072.25;5076394;28;20134;-84
2023/12/20 09:46:02;;;;;;;159.02;52.97;;;;;;;0.39;85.87;94954.63;5071759;28;20043;-83
2023/12/20 09:48:28;;;;;;;155.43;54.97;;;;;;;1.13;85.76;95060.72;5076206;28;20406;-83
2023/12/20 09:50:54;;;;;;;173.57;54.25;;;;;;;1.07;85.60;95051.13;5088792;28;20028;-82
2023/12/20 09:53:23;;;;;;;173.52;55.33;;;;;;;1.29;85.44;95060.16;5061779;28;21331;-85
2023/12/20 09:55:49;;;;;;;168.02;53.85;;;;;;;1.38;85.16;95052.78;5065665;28;20040;-85
2023/12/20 09:58:15;;;;;;;176.52;54.08;;;;;;;1.42;85.17;95053.97;5076512;28;20036;-85
2023/12/20 10:00:40;;;;;;;174.07;55.10;;;;;;;0.61;85.55;94942.00;5064168;28;20032;-83
2023/12/20 10:03:07;;;;;;;154.38;54.30;;;;;;;1.50;85.46;95046.63;5084162;28;20021;-84
2023/12/20 10:05:34;;;;;;;178.00;56.83;;;;;;;1.06;84.95;94973.81;5078641;28;20048;-81
2023/12/20 10:08:01;;;;;;;178.57;59.58;;;;;;;1.62;85.15;95041.44;5062357;28;20448;-82
2023/12/20 10:10:27;;;;;;;169.60;56.40;;;;;;;1.01;84.79;94934.47;5043777;28;20064;-83
2023/12/20 10:13:25;;;;;;;169.55;56.03;;;;;;;1.75;85.26;95048.31;5043845;28;20035;-82
2023/12/20 10:15:51;;;;;;;170.07;54.72;;;;;;;1.57;84.81;94993.47;5008228;28;20131;-84
2023/12/20 10:18:16;;;;;;;163.90;55.25;;;;;;;1.79;84.83;95010.25;5064011;28;20119;-84
2023/12/20 10:20:42;;;;;;;176.57;56.40;;;;;;;1.86;84.71;95018.78;5049578;28;20321;-85
2023/12/20 10:23:11;;;;;;;156.48;54.97;;;;;;;1.86;84.64;94992.63;5068755;28;20039;-85
2023/12/20 10:25:36;;;;;;;166.98;56.42;;;;;;;1.71;84.84;94940.75;5058714;28;20032;-85
2023/12/20 10:28:19;;;;;;;165.07;59.85;;;;;;;2.05;84.47;94983.72;5046108;28;20090;-82
2023/12/20 10:30:45;;;;;;;150.98;55.35;;;;;;;2.50;86.07;95004.13;5047708;28;20613;-82
2023/12/20 10:33:10;;;;;;;165.60;60.00;;;;;;;2.37;85.54;94904.88;5077480;28;20032;-82
2023/12/20 10:35:38;;;;;;;162.60;59.42;;;;;;;3.33;85.48;94988.06;5068906;28;20033;-86
2023/12/20 10:38:05;;;;;;;174.02;61.70;;;;;;;1.65;84.35;94656.75;5055825;28;20374;-83
2023/12/20 10:40:36;;;;;;;164.48;59.17;;;;;;;4.06;83.11;94987.28;5038559;28;20056;-84
2023/12/20 10:43:02;;;;;;;195.15;63.58;;;;;;;2.16;80.71;94692.53;5048791;28;20021;-87
2023/12/20 10:45:28;;;;;;;188.38;66.00;;;;;;;3.31;79.93;94827.63;5065745;28;20134;-86
2023/12/20 10:47:53;;;;;;;221.85;69.70;;;;;;;4.35;78.53;94972.28;5067537;28;20129;-85
2023/12/20 10:50:20;;;;;;;175.10;62.67;;;;;;;3.36;76.80;94783.94;5055792;28;20525;-85
2023/12/20 10:52:47;;;;;;;200.60;64.55;;;;;;;3.74;76.77;94838.28;5055397;28;20056;-85
2023/12/20 10:55:14;;;;;;;192.90;68.25;;;;;;;3.80;76.37;94839.16;5048307;28;20081;-84
2023/12/20 10:57:39;;;;;;;191.80;69.07;;;;;;;4.54;77.38;94957.84;5046994;28;20738;-84
2023/12/20 11:00:11;;;;;;;200.35;68.45;;;;;;;4.24;77.23;94885.47;5046717;28;20036;-83
2023/12/20 11:02:40;;;;;;;205.90;71.10;;;;;;;3.80;74.94;94821.59;5041918;28;20473;-85
2023/12/20 11:05:43;;;;;;;191.60;67.88;;;;;;;4.58;75.37;94941.34;5049697;28;20081;-83